sensor_id;sensor_type;location;lat;lon;timestamp;P1;durP1;ratioP1;P2;durP2;ratioP2
13345;SDS011;6742;48.036;15.780;2024-03-06T00:01:56;20.60;;;15.40;;
13345;SDS011;6742;48.036;15.780;2024-03-06T00:04:23;21.57;;;15.33;;
13345;SDS011;6742;48.036;15.780;2024-03-06T00:06:50;16.07;;;13.43;;
13345;SDS011;6742;48.036;15.780;2024-03-06T00:09:19;20.47;;;15.17;;
13345;SDS011;6742;48.036;15.780;2024-03-06T00:11:46;19.67;;;14.60;;
13345;SDS011;6742;48.036;15.780;2024-03-06T00:14:13;19.63;;;14.03;;
13345;SDS011;6742;48.036;15.780;2024-03-06T00:16:40;16.93;;;13.67;;
13345;SDS011;6742;48.036;15.780;2024-03-06T00:19:08;18.17;;;13.87;;
13345;SDS011;6742;48.036;15.780;2024-03-06T00:21:35;19.70;;;13.90;;
13345;SDS011;6742;48.036;15.780;2024-03-06T00:24:02;18.53;;;14.73;;
13345;SDS011;6742;48.036;15.780;2024-03-06T00:26:29;17.67;;;13.83;;
13345;SDS011;6742;48.036;15.780;2024-03-06T00:28:57;18.85;;;14.00;;
13345;SDS011;6742;48.036;15.780;2024-03-06T00:31:24;17.83;;;14.10;;
13345;SDS011;6742;48.036;15.780;2024-03-06T00:33:50;18.95;;;14.20;;
13345;SDS011;6742;48.036;15.780;2024-03-06T00:36:19;18.00;;;13.93;;
13345;SDS011;6742;48.036;15.780;2024-03-06T00:38:47;18.27;;;13.93;;
13345;SDS011;6742;48.036;15.780;2024-03-06T00:41:14;16.98;;;13.25;;
13345;SDS011;6742;48.036;15.780;2024-03-06T00:43:41;19.53;;;13.40;;
13345;SDS011;6742;48.036;15.780;2024-03-06T00:46:08;18.48;;;14.00;;
13345;SDS011;6742;48.036;15.780;2024-03-06T00:48:35;19.30;;;14.97;;
13345;SDS011;6742;48.036;15.780;2024-03-06T00:51:04;20.07;;;14.37;;
13345;SDS011;6742;48.036;15.780;2024-03-06T00:53:32;18.53;;;14.00;;
13345;SDS011;6742;48.036;15.780;2024-03-06T00:56:00;18.33;;;13.30;;
13345;SDS011;6742;48.036;15.780;2024-03-06T00:58:28;15.75;;;12.15;;
13345;SDS011;6742;48.036;15.780;2024-03-06T01:00:54;17.45;;;13.63;;
13345;SDS011;6742;48.036;15.780;2024-03-06T01:03:23;16.80;;;13.07;;
13345;SDS011;6742;48.036;15.780;2024-03-06T01:05:50;15.13;;;12.50;;
13345;SDS011;6742;48.036;15.780;2024-03-06T01:08:18;17.63;;;13.27;;
13345;SDS011;6742;48.036;15.780;2024-03-06T01:10:47;17.80;;;13.60;;
13345;SDS011;6742;48.036;15.780;2024-03-06T01:13:13;15.43;;;12.23;;
13345;SDS011;6742;48.036;15.780;2024-03-06T01:15:43;17.47;;;13.47;;
13345;SDS011;6742;48.036;15.780;2024-03-06T01:18:10;16.67;;;12.47;;
13345;SDS011;6742;48.036;15.780;2024-03-06T01:20:37;16.63;;;12.57;;
13345;SDS011;6742;48.036;15.780;2024-03-06T01:23:05;15.93;;;12.17;;
13345;SDS011;6742;48.036;15.780;2024-03-06T01:25:32;13.97;;;11.73;;
13345;SDS011;6742;48.036;15.780;2024-03-06T01:28:01;15.23;;;11.20;;
13345;SDS011;6742;48.036;15.780;2024-03-06T01:30:29;14.33;;;11.13;;
13345;SDS011;6742;48.036;15.780;2024-03-06T01:32:55;13.47;;;10.60;;
13345;SDS011;6742;48.036;15.780;2024-03-06T01:35:23;12.23;;;10.17;;
13345;SDS011;6742;48.036;15.780;2024-03-06T01:37:50;11.67;;;9.93;;
13345;SDS011;6742;48.036;15.780;2024-03-06T01:40:17;11.83;;;9.47;;
13345;SDS011;6742;48.036;15.780;2024-03-06T01:42:46;12.33;;;10.27;;
13345;SDS011;6742;48.036;15.780;2024-03-06T01:45:14;11.37;;;9.73;;
13345;SDS011;6742;48.036;15.780;2024-03-06T01:47:41;12.43;;;10.50;;
13345;SDS011;6742;48.036;15.780;2024-03-06T01:50:08;10.40;;;9.30;;
13345;SDS011;6742;48.036;15.780;2024-03-06T01:52:37;11.23;;;9.50;;
13345;SDS011;6742;48.036;15.780;2024-03-06T01:55:06;13.37;;;10.53;;
13345;SDS011;6742;48.036;15.780;2024-03-06T01:57:35;11.70;;;10.17;;
13345;SDS011;6742;48.036;15.780;2024-03-06T02:00:04;11.57;;;10.20;;
13345;SDS011;6742;48.036;15.780;2024-03-06T02:02:34;12.63;;;10.20;;
13345;SDS011;6742;48.036;15.780;2024-03-06T02:05:01;10.97;;;9.33;;
13345;SDS011;6742;48.036;15.780;2024-03-06T02:07:28;14.27;;;9.67;;
13345;SDS011;6742;48.036;15.780;2024-03-06T02:09:59;12.57;;;9.57;;
13345;SDS011;6742;48.036;15.780;2024-03-06T02:12:26;12.60;;;9.77;;
13345;SDS011;6742;48.036;15.780;2024-03-06T02:14:53;11.53;;;9.57;;
13345;SDS011;6742;48.036;15.780;2024-03-06T02:17:20;12.20;;;9.87;;
13345;SDS011;6742;48.036;15.780;2024-03-06T02:19:48;11.83;;;9.67;;
13345;SDS011;6742;48.036;15.780;2024-03-06T02:22:17;12.10;;;9.47;;
13345;SDS011;6742;48.036;15.780;2024-03-06T02:24:44;11.27;;;9.57;;
13345;SDS011;6742;48.036;15.780;2024-03-06T02:27:14;10.87;;;9.60;;
13345;SDS011;6742;48.036;15.780;2024-03-06T02:29:41;10.50;;;8.73;;
13345;SDS011;6742;48.036;15.780;2024-03-06T02:32:08;13.40;;;9.43;;
13345;SDS011;6742;48.036;15.780;2024-03-06T02:34:38;10.23;;;8.40;;
13345;SDS011;6742;48.036;15.780;2024-03-06T02:37:06;10.40;;;8.83;;
13345;SDS011;6742;48.036;15.780;2024-03-06T02:39:34;10.97;;;9.70;;
13345;SDS011;6742;48.036;15.780;2024-03-06T02:42:01;11.90;;;9.80;;
13345;SDS011;6742;48.036;15.780;2024-03-06T02:44:29;12.07;;;9.43;;
13345;SDS011;6742;48.036;15.780;2024-03-06T02:46:56;12.10;;;9.70;;
13345;SDS011;6742;48.036;15.780;2024-03-06T02:49:22;12.97;;;10.43;;
13345;SDS011;6742;48.036;15.780;2024-03-06T02:51:50;11.93;;;9.93;;
13345;SDS011;6742;48.036;15.780;2024-03-06T02:54:17;13.17;;;10.70;;
13345;SDS011;6742;48.036;15.780;2024-03-06T02:56:45;13.33;;;11.40;;
13345;SDS011;6742;48.036;15.780;2024-03-06T02:59:12;14.47;;;11.00;;
13345;SDS011;6742;48.036;15.780;2024-03-06T03:01:40;14.50;;;11.90;;
13345;SDS011;6742;48.036;15.780;2024-03-06T03:04:07;13.90;;;10.87;;
13345;SDS011;6742;48.036;15.780;2024-03-06T03:06:34;13.90;;;10.90;;
13345;SDS011;6742;48.036;15.780;2024-03-06T03:09:01;12.43;;;10.50;;
13345;SDS011;6742;48.036;15.780;2024-03-06T03:11:28;10.60;;;9.07;;
13345;SDS011;6742;48.036;15.780;2024-03-06T03:13:58;10.87;;;8.93;;
13345;SDS011;6742;48.036;15.780;2024-03-06T03:16:25;11.33;;;9.83;;
13345;SDS011;6742;48.036;15.780;2024-03-06T03:18:52;11.97;;;9.60;;
13345;SDS011;6742;48.036;15.780;2024-03-06T03:21:19;14.00;;;10.97;;
13345;SDS011;6742;48.036;15.780;2024-03-06T03:23:46;21.03;;;17.83;;
13345;SDS011;6742;48.036;15.780;2024-03-06T03:26:13;22.30;;;18.57;;
13345;SDS011;6742;48.036;15.780;2024-03-06T03:28:41;15.67;;;12.63;;
13345;SDS011;6742;48.036;15.780;2024-03-06T03:31:09;17.50;;;14.90;;
13345;SDS011;6742;48.036;15.780;2024-03-06T03:33:38;16.27;;;12.83;;
13345;SDS011;6742;48.036;15.780;2024-03-06T03:36:05;11.63;;;9.67;;
13345;SDS011;6742;48.036;15.780;2024-03-06T03:38:33;13.27;;;10.37;;
13345;SDS011;6742;48.036;15.780;2024-03-06T03:41:02;11.77;;;10.10;;
13345;SDS011;6742;48.036;15.780;2024-03-06T03:43:29;12.33;;;10.07;;
13345;SDS011;6742;48.036;15.780;2024-03-06T03:45:58;11.80;;;9.93;;
13345;SDS011;6742;48.036;15.780;2024-03-06T03:48:26;11.40;;;9.93;;
13345;SDS011;6742;48.036;15.780;2024-03-06T03:50:53;11.43;;;10.07;;
13345;SDS011;6742;48.036;15.780;2024-03-06T03:53:20;12.30;;;10.07;;
13345;SDS011;6742;48.036;15.780;2024-03-06T03:55:47;11.60;;;9.93;;
13345;SDS011;6742;48.036;15.780;2024-03-06T03:58:16;12.87;;;9.63;;
13345;SDS011;6742;48.036;15.780;2024-03-06T04:00:43;12.70;;;9.50;;
13345;SDS011;6742;48.036;15.780;2024-03-06T04:03:10;11.53;;;10.33;;
13345;SDS011;6742;48.036;15.780;2024-03-06T04:05:39;11.90;;;10.00;;
13345;SDS011;6742;48.036;15.780;2024-03-06T04:08:05;12.93;;;10.40;;
13345;SDS011;6742;48.036;15.780;2024-03-06T04:10:32;15.53;;;12.27;;
13345;SDS011;6742;48.036;15.780;2024-03-06T04:12:59;13.77;;;11.60;;
13345;SDS011;6742;48.036;15.780;2024-03-06T04:15:26;15.87;;;12.13;;
13345;SDS011;6742;48.036;15.780;2024-03-06T04:17:53;15.33;;;11.97;;
13345;SDS011;6742;48.036;15.780;2024-03-06T04:20:20;13.27;;;11.87;;
13345;SDS011;6742;48.036;15.780;2024-03-06T04:22:48;14.93;;;12.20;;
13345;SDS011;6742;48.036;15.780;2024-03-06T04:25:19;14.60;;;12.93;;
13345;SDS011;6742;48.036;15.780;2024-03-06T04:27:46;17.07;;;13.30;;
13345;SDS011;6742;48.036;15.780;2024-03-06T04:30:13;14.70;;;11.20;;
13345;SDS011;6742;48.036;15.780;2024-03-06T04:32:40;14.80;;;12.33;;
13345;SDS011;6742;48.036;15.780;2024-03-06T04:35:07;15.13;;;11.97;;
13345;SDS011;6742;48.036;15.780;2024-03-06T04:37:35;15.97;;;13.17;;
13345;SDS011;6742;48.036;15.780;2024-03-06T04:40:04;16.53;;;13.50;;
13345;SDS011;6742;48.036;15.780;2024-03-06T04:42:33;15.80;;;12.83;;
13345;SDS011;6742;48.036;15.780;2024-03-06T04:45:01;14.63;;;11.97;;
13345;SDS011;6742;48.036;15.780;2024-03-06T04:47:29;15.90;;;12.90;;
13345;SDS011;6742;48.036;15.780;2024-03-06T04:49:56;22.10;;;16.27;;
13345;SDS011;6742;48.036;15.780;2024-03-06T04:52:24;23.07;;;16.67;;
13345;SDS011;6742;48.036;15.780;2024-03-06T04:54:50;20.13;;;16.17;;
13345;SDS011;6742;48.036;15.780;2024-03-06T04:57:19;19.67;;;15.03;;
13345;SDS011;6742;48.036;15.780;2024-03-06T04:59:46;21.23;;;15.20;;
13345;SDS011;6742;48.036;15.780;2024-03-06T05:02:13;21.13;;;15.70;;
13345;SDS011;6742;48.036;15.780;2024-03-06T05:04:40;22.07;;;15.10;;
13345;SDS011;6742;48.036;15.780;2024-03-06T05:07:07;22.17;;;15.90;;
13345;SDS011;6742;48.036;15.780;2024-03-06T05:09:34;25.03;;;15.70;;
13345;SDS011;6742;48.036;15.780;2024-03-06T05:12:01;20.60;;;15.13;;
13345;SDS011;6742;48.036;15.780;2024-03-06T05:14:31;21.33;;;14.67;;
13345;SDS011;6742;48.036;15.780;2024-03-06T05:16:58;21.90;;;16.80;;
13345;SDS011;6742;48.036;15.780;2024-03-06T05:19:25;20.70;;;15.80;;
13345;SDS011;6742;48.036;15.780;2024-03-06T05:21:56;24.57;;;17.03;;
13345;SDS011;6742;48.036;15.780;2024-03-06T05:24:23;24.50;;;16.20;;
13345;SDS011;6742;48.036;15.780;2024-03-06T05:26:50;28.97;;;20.63;;
13345;SDS011;6742;48.036;15.780;2024-03-06T05:29:17;36.23;;;20.93;;
13345;SDS011;6742;48.036;15.780;2024-03-06T05:31:46;29.57;;;20.07;;
13345;SDS011;6742;48.036;15.780;2024-03-06T05:34:13;28.70;;;19.83;;
13345;SDS011;6742;48.036;15.780;2024-03-06T05:36:39;33.40;;;20.47;;
13345;SDS011;6742;48.036;15.780;2024-03-06T05:39:06;27.73;;;19.33;;
13345;SDS011;6742;48.036;15.780;2024-03-06T05:41:37;26.90;;;18.87;;
13345;SDS011;6742;48.036;15.780;2024-03-06T05:44:04;29.83;;;20.07;;
13345;SDS011;6742;48.036;15.780;2024-03-06T05:46:31;29.00;;;20.70;;
13345;SDS011;6742;48.036;15.780;2024-03-06T05:49:00;26.77;;;19.87;;
13345;SDS011;6742;48.036;15.780;2024-03-06T05:51:27;27.43;;;20.27;;
13345;SDS011;6742;48.036;15.780;2024-03-06T05:53:54;29.93;;;22.07;;
13345;SDS011;6742;48.036;15.780;2024-03-06T05:56:21;31.67;;;22.73;;
13345;SDS011;6742;48.036;15.780;2024-03-06T05:58:48;31.43;;;23.63;;
13345;SDS011;6742;48.036;15.780;2024-03-06T06:01:15;31.13;;;22.33;;
13345;SDS011;6742;48.036;15.780;2024-03-06T06:03:45;33.10;;;22.40;;
13345;SDS011;6742;48.036;15.780;2024-03-06T06:06:14;32.27;;;23.17;;
13345;SDS011;6742;48.036;15.780;2024-03-06T06:08:41;31.20;;;23.13;;
13345;SDS011;6742;48.036;15.780;2024-03-06T06:11:09;33.40;;;23.80;;
13345;SDS011;6742;48.036;15.780;2024-03-06T06:13:36;31.83;;;23.93;;
13345;SDS011;6742;48.036;15.780;2024-03-06T06:16:04;29.67;;;22.70;;
13345;SDS011;6742;48.036;15.780;2024-03-06T06:18:32;35.03;;;24.60;;
13345;SDS011;6742;48.036;15.780;2024-03-06T06:20:59;33.53;;;24.93;;
13345;SDS011;6742;48.036;15.780;2024-03-06T06:23:27;34.50;;;24.33;;
13345;SDS011;6742;48.036;15.780;2024-03-06T06:25:55;32.43;;;24.50;;
13345;SDS011;6742;48.036;15.780;2024-03-06T06:28:22;32.07;;;23.67;;
13345;SDS011;6742;48.036;15.780;2024-03-06T06:30:49;32.37;;;24.17;;
13345;SDS011;6742;48.036;15.780;2024-03-06T06:33:17;34.23;;;23.90;;
13345;SDS011;6742;48.036;15.780;2024-03-06T06:35:45;35.43;;;24.43;;
13345;SDS011;6742;48.036;15.780;2024-03-06T06:38:12;30.27;;;23.70;;
13345;SDS011;6742;48.036;15.780;2024-03-06T06:40:41;29.83;;;23.23;;
13345;SDS011;6742;48.036;15.780;2024-03-06T06:43:08;30.47;;;23.77;;
13345;SDS011;6742;48.036;15.780;2024-03-06T06:45:35;30.63;;;22.73;;
13345;SDS011;6742;48.036;15.780;2024-03-06T06:48:03;31.27;;;24.20;;
13345;SDS011;6742;48.036;15.780;2024-03-06T06:50:30;31.30;;;23.30;;
13345;SDS011;6742;48.036;15.780;2024-03-06T06:52:58;31.00;;;22.93;;
13345;SDS011;6742;48.036;15.780;2024-03-06T06:55:25;29.70;;;21.10;;
13345;SDS011;6742;48.036;15.780;2024-03-06T06:57:54;29.13;;;20.47;;
13345;SDS011;6742;48.036;15.780;2024-03-06T07:00:22;26.20;;;19.10;;
13345;SDS011;6742;48.036;15.780;2024-03-06T07:02:50;26.73;;;19.83;;
13345;SDS011;6742;48.036;15.780;2024-03-06T07:05:17;29.07;;;21.07;;
13345;SDS011;6742;48.036;15.780;2024-03-06T07:07:44;23.73;;;18.43;;
13345;SDS011;6742;48.036;15.780;2024-03-06T07:10:11;25.93;;;18.37;;
13345;SDS011;6742;48.036;15.780;2024-03-06T07:12:39;27.43;;;17.30;;
13345;SDS011;6742;48.036;15.780;2024-03-06T07:15:08;22.70;;;16.53;;
13345;SDS011;6742;48.036;15.780;2024-03-06T07:17:35;22.93;;;16.13;;
13345;SDS011;6742;48.036;15.780;2024-03-06T07:20:02;24.33;;;16.47;;
13345;SDS011;6742;48.036;15.780;2024-03-06T07:22:31;21.80;;;16.00;;
13345;SDS011;6742;48.036;15.780;2024-03-06T07:24:59;21.80;;;16.23;;
13345;SDS011;6742;48.036;15.780;2024-03-06T07:27:26;20.27;;;15.27;;
13345;SDS011;6742;48.036;15.780;2024-03-06T07:29:53;22.37;;;15.77;;
13345;SDS011;6742;48.036;15.780;2024-03-06T07:32:22;21.43;;;15.40;;
13345;SDS011;6742;48.036;15.780;2024-03-06T07:34:49;20.50;;;15.30;;
13345;SDS011;6742;48.036;15.780;2024-03-06T07:37:16;19.07;;;14.57;;
13345;SDS011;6742;48.036;15.780;2024-03-06T07:39:43;22.27;;;15.40;;
13345;SDS011;6742;48.036;15.780;2024-03-06T07:42:10;18.60;;;14.30;;
13345;SDS011;6742;48.036;15.780;2024-03-06T07:44:38;20.77;;;14.50;;
13345;SDS011;6742;48.036;15.780;2024-03-06T07:47:05;21.20;;;14.53;;
13345;SDS011;6742;48.036;15.780;2024-03-06T07:49:34;18.27;;;14.00;;
13345;SDS011;6742;48.036;15.780;2024-03-06T07:52:01;20.73;;;14.53;;
13345;SDS011;6742;48.036;15.780;2024-03-06T07:54:28;21.20;;;14.10;;
13345;SDS011;6742;48.036;15.780;2024-03-06T07:56:55;19.13;;;14.67;;
13345;SDS011;6742;48.036;15.780;2024-03-06T07:59:22;19.10;;;14.70;;
13345;SDS011;6742;48.036;15.780;2024-03-06T08:01:49;18.00;;;14.03;;
13345;SDS011;6742;48.036;15.780;2024-03-06T08:04:17;20.60;;;14.83;;
13345;SDS011;6742;48.036;15.780;2024-03-06T08:06:45;21.20;;;14.70;;
13345;SDS011;6742;48.036;15.780;2024-03-06T08:09:12;19.73;;;14.63;;
13345;SDS011;6742;48.036;15.780;2024-03-06T08:11:41;20.50;;;15.00;;
13345;SDS011;6742;48.036;15.780;2024-03-06T08:14:08;17.73;;;13.67;;
13345;SDS011;6742;48.036;15.780;2024-03-06T08:16:35;18.23;;;13.10;;
13345;SDS011;6742;48.036;15.780;2024-03-06T08:19:02;18.10;;;13.13;;
13345;SDS011;6742;48.036;15.780;2024-03-06T08:21:29;17.63;;;13.50;;
13345;SDS011;6742;48.036;15.780;2024-03-06T08:23:58;15.90;;;13.27;;
13345;SDS011;6742;48.036;15.780;2024-03-06T08:26:24;17.17;;;13.10;;
13345;SDS011;6742;48.036;15.780;2024-03-06T08:28:51;17.03;;;12.63;;
13345;SDS011;6742;48.036;15.780;2024-03-06T08:31:18;16.38;;;12.73;;
13345;SDS011;6742;48.036;15.780;2024-03-06T08:33:46;18.43;;;13.33;;
13345;SDS011;6742;48.036;15.780;2024-03-06T08:36:13;16.93;;;12.70;;
13345;SDS011;6742;48.036;15.780;2024-03-06T08:38:40;19.27;;;12.73;;
13345;SDS011;6742;48.036;15.780;2024-03-06T08:41:08;18.30;;;13.33;;
13345;SDS011;6742;48.036;15.780;2024-03-06T08:43:35;17.50;;;13.32;;
13345;SDS011;6742;48.036;15.780;2024-03-06T08:46:02;18.57;;;13.23;;
13345;SDS011;6742;48.036;15.780;2024-03-06T08:48:29;16.67;;;12.57;;
13345;SDS011;6742;48.036;15.780;2024-03-06T08:50:56;16.05;;;12.32;;
13345;SDS011;6742;48.036;15.780;2024-03-06T08:53:23;17.50;;;13.57;;
13345;SDS011;6742;48.036;15.780;2024-03-06T08:55:51;19.45;;;12.70;;
13345;SDS011;6742;48.036;15.780;2024-03-06T08:58:18;15.90;;;13.20;;
13345;SDS011;6742;48.036;15.780;2024-03-06T09:00:46;17.70;;;12.93;;
13345;SDS011;6742;48.036;15.780;2024-03-06T09:03:13;17.17;;;12.33;;
13345;SDS011;6742;48.036;15.780;2024-03-06T09:05:40;16.60;;;12.97;;
13345;SDS011;6742;48.036;15.780;2024-03-06T09:08:07;16.48;;;12.70;;
13345;SDS011;6742;48.036;15.780;2024-03-06T09:10:34;15.47;;;12.20;;
13345;SDS011;6742;48.036;15.780;2024-03-06T09:13:01;16.05;;;12.60;;
13345;SDS011;6742;48.036;15.780;2024-03-06T09:15:30;17.37;;;13.30;;
13345;SDS011;6742;48.036;15.780;2024-03-06T09:17:57;15.40;;;12.35;;
13345;SDS011;6742;48.036;15.780;2024-03-06T09:20:24;19.90;;;13.30;;
13345;SDS011;6742;48.036;15.780;2024-03-06T09:22:51;15.80;;;12.60;;
13345;SDS011;6742;48.036;15.780;2024-03-06T09:25:19;14.10;;;11.07;;
13345;SDS011;6742;48.036;15.780;2024-03-06T09:27:46;13.23;;;11.03;;
13345;SDS011;6742;48.036;15.780;2024-03-06T09:30:13;13.27;;;9.98;;
13345;SDS011;6742;48.036;15.780;2024-03-06T09:32:42;12.90;;;10.80;;
13345;SDS011;6742;48.036;15.780;2024-03-06T09:35:09;14.10;;;11.02;;
13345;SDS011;6742;48.036;15.780;2024-03-06T09:37:37;14.32;;;10.38;;
13345;SDS011;6742;48.036;15.780;2024-03-06T09:40:04;15.38;;;11.80;;
13345;SDS011;6742;48.036;15.780;2024-03-06T09:42:34;13.20;;;10.18;;
13345;SDS011;6742;48.036;15.780;2024-03-06T09:45:01;15.50;;;11.80;;
13345;SDS011;6742;48.036;15.780;2024-03-06T09:47:28;12.60;;;10.30;;
13345;SDS011;6742;48.036;15.780;2024-03-06T09:50:03;15.53;;;11.70;;
13345;SDS011;6742;48.036;15.780;2024-03-06T09:52:35;14.63;;;10.73;;
13345;SDS011;6742;48.036;15.780;2024-03-06T09:55:03;14.43;;;10.87;;
13345;SDS011;6742;48.036;15.780;2024-03-06T09:57:30;14.88;;;10.23;;
13345;SDS011;6742;48.036;15.780;2024-03-06T09:59:57;11.55;;;10.00;;
13345;SDS011;6742;48.036;15.780;2024-03-06T10:02:28;16.02;;;11.00;;
13345;SDS011;6742;48.036;15.780;2024-03-06T10:05:01;14.50;;;10.93;;
13345;SDS011;6742;48.036;15.780;2024-03-06T10:07:31;16.25;;;10.70;;
13345;SDS011;6742;48.036;15.780;2024-03-06T10:09:58;13.90;;;10.60;;
13345;SDS011;6742;48.036;15.780;2024-03-06T10:12:25;14.23;;;10.90;;
13345;SDS011;6742;48.036;15.780;2024-03-06T10:14:55;12.40;;;10.52;;
13345;SDS011;6742;48.036;15.780;2024-03-06T10:17:22;13.68;;;11.18;;
13345;SDS011;6742;48.036;15.780;2024-03-06T10:19:51;14.73;;;11.13;;
13345;SDS011;6742;48.036;15.780;2024-03-06T10:22:20;13.23;;;11.05;;
13345;SDS011;6742;48.036;15.780;2024-03-06T10:24:49;14.18;;;11.48;;
13345;SDS011;6742;48.036;15.780;2024-03-06T10:27:17;14.32;;;11.60;;
13345;SDS011;6742;48.036;15.780;2024-03-06T10:29:44;15.43;;;11.70;;
13345;SDS011;6742;48.036;15.780;2024-03-06T10:32:15;14.55;;;11.90;;
13345;SDS011;6742;48.036;15.780;2024-03-06T10:34:44;15.55;;;11.35;;
13345;SDS011;6742;48.036;15.780;2024-03-06T10:37:11;14.45;;;11.93;;
13345;SDS011;6742;48.036;15.780;2024-03-06T10:39:41;17.15;;;12.55;;
13345;SDS011;6742;48.036;15.780;2024-03-06T10:42:09;13.68;;;11.32;;
13345;SDS011;6742;48.036;15.780;2024-03-06T10:44:41;14.50;;;10.93;;
13345;SDS011;6742;48.036;15.780;2024-03-06T10:47:17;15.73;;;12.07;;
13345;SDS011;6742;48.036;15.780;2024-03-06T10:49:46;12.55;;;10.85;;
13345;SDS011;6742;48.036;15.780;2024-03-06T10:52:13;17.77;;;12.27;;
13345;SDS011;6742;48.036;15.780;2024-03-06T10:54:43;14.18;;;11.82;;
13345;SDS011;6742;48.036;15.780;2024-03-06T10:57:12;14.63;;;11.73;;
13345;SDS011;6742;48.036;15.780;2024-03-06T10:59:40;14.80;;;11.52;;
13345;SDS011;6742;48.036;15.780;2024-03-06T11:02:09;15.43;;;12.88;;
13345;SDS011;6742;48.036;15.780;2024-03-06T11:04:37;15.73;;;12.25;;
13345;SDS011;6742;48.036;15.780;2024-03-06T11:07:06;15.60;;;12.40;;
13345;SDS011;6742;48.036;15.780;2024-03-06T11:09:34;15.63;;;12.60;;
13345;SDS011;6742;48.036;15.780;2024-03-06T11:12:05;14.27;;;11.70;;
13345;SDS011;6742;48.036;15.780;2024-03-06T11:14:33;16.35;;;12.63;;
13345;SDS011;6742;48.036;15.780;2024-03-06T11:17:03;15.73;;;11.90;;
13345;SDS011;6742;48.036;15.780;2024-03-06T11:19:32;14.00;;;11.48;;
13345;SDS011;6742;48.036;15.780;2024-03-06T11:22:23;14.32;;;11.48;;
13345;SDS011;6742;48.036;15.780;2024-03-06T11:28:25;14.27;;;11.32;;
13345;SDS011;6742;48.036;15.780;2024-03-06T11:30:55;16.08;;;11.30;;
13345;SDS011;6742;48.036;15.780;2024-03-06T11:33:23;15.25;;;11.80;;
13345;SDS011;6742;48.036;15.780;2024-03-06T11:36:12;15.90;;;12.05;;
13345;SDS011;6742;48.036;15.780;2024-03-06T11:38:42;15.95;;;11.65;;
13345;SDS011;6742;48.036;15.780;2024-03-06T11:41:09;14.98;;;11.85;;
13345;SDS011;6742;48.036;15.780;2024-03-06T11:43:43;16.10;;;12.00;;
13345;SDS011;6742;48.036;15.780;2024-03-06T11:46:10;14.27;;;11.32;;
13345;SDS011;6742;48.036;15.780;2024-03-06T11:48:38;13.68;;;11.98;;
13345;SDS011;6742;48.036;15.780;2024-03-06T11:51:05;13.32;;;11.50;;
13345;SDS011;6742;48.036;15.780;2024-03-06T11:53:32;14.65;;;11.68;;
13345;SDS011;6742;48.036;15.780;2024-03-06T11:56:00;13.30;;;11.20;;
13345;SDS011;6742;48.036;15.780;2024-03-06T11:58:27;13.63;;;12.20;;
13345;SDS011;6742;48.036;15.780;2024-03-06T12:00:55;14.33;;;11.87;;
13345;SDS011;6742;48.036;15.780;2024-03-06T12:03:22;13.57;;;11.07;;
13345;SDS011;6742;48.036;15.780;2024-03-06T12:05:50;14.05;;;11.60;;
13345;SDS011;6742;48.036;15.780;2024-03-06T12:08:18;14.05;;;12.20;;
13345;SDS011;6742;48.036;15.780;2024-03-06T12:10:45;14.48;;;11.80;;
13345;SDS011;6742;48.036;15.780;2024-03-06T12:13:13;16.55;;;11.80;;
13345;SDS011;6742;48.036;15.780;2024-03-06T12:15:42;15.50;;;11.98;;
13345;SDS011;6742;48.036;15.780;2024-03-06T12:18:12;15.82;;;11.93;;
13345;SDS011;6742;48.036;15.780;2024-03-06T12:20:42;16.08;;;12.15;;
13345;SDS011;6742;48.036;15.780;2024-03-06T12:23:18;13.95;;;11.02;;
13345;SDS011;6742;48.036;15.780;2024-03-06T12:25:50;14.73;;;11.82;;
13345;SDS011;6742;48.036;15.780;2024-03-06T12:28:28;15.88;;;12.27;;
13345;SDS011;6742;48.036;15.780;2024-03-06T12:30:55;13.57;;;11.10;;
13345;SDS011;6742;48.036;15.780;2024-03-06T12:33:27;15.63;;;12.02;;
13345;SDS011;6742;48.036;15.780;2024-03-06T12:36:03;16.58;;;12.25;;
13345;SDS011;6742;48.036;15.780;2024-03-06T12:38:35;16.15;;;11.95;;
13345;SDS011;6742;48.036;15.780;2024-03-06T12:41:02;16.58;;;12.57;;
13345;SDS011;6742;48.036;15.780;2024-03-06T12:43:31;16.65;;;13.10;;
13345;SDS011;6742;48.036;15.780;2024-03-06T12:45:59;13.88;;;11.70;;
13345;SDS011;6742;48.036;15.780;2024-03-06T12:48:29;15.70;;;12.07;;
13345;SDS011;6742;48.036;15.780;2024-03-06T12:50:56;15.98;;;12.32;;
13345;SDS011;6742;48.036;15.780;2024-03-06T12:53:29;15.25;;;13.20;;
13345;SDS011;6742;48.036;15.780;2024-03-06T12:55:56;17.10;;;13.23;;
13345;SDS011;6742;48.036;15.780;2024-03-06T12:58:23;15.95;;;13.02;;
13345;SDS011;6742;48.036;15.780;2024-03-06T13:00:50;15.57;;;12.27;;
13345;SDS011;6742;48.036;15.780;2024-03-06T13:03:19;17.73;;;13.20;;
13345;SDS011;6742;48.036;15.780;2024-03-06T13:05:51;17.10;;;11.80;;
13345;SDS011;6742;48.036;15.780;2024-03-06T13:08:18;16.40;;;12.40;;
13345;SDS011;6742;48.036;15.780;2024-03-06T13:10:45;18.42;;;13.13;;
13345;SDS011;6742;48.036;15.780;2024-03-06T13:13:12;17.40;;;12.80;;
13345;SDS011;6742;48.036;15.780;2024-03-06T13:15:38;17.48;;;13.20;;
13345;SDS011;6742;48.036;15.780;2024-03-06T13:18:05;15.63;;;12.52;;
13345;SDS011;6742;48.036;15.780;2024-03-06T13:20:33;15.43;;;11.98;;
13345;SDS011;6742;48.036;15.780;2024-03-06T13:23:01;15.98;;;12.88;;
13345;SDS011;6742;48.036;15.780;2024-03-06T13:25:28;16.55;;;12.55;;
13345;SDS011;6742;48.036;15.780;2024-03-06T13:27:56;14.70;;;12.60;;
13345;SDS011;6742;48.036;15.780;2024-03-06T13:30:24;16.10;;;13.00;;
13345;SDS011;6742;48.036;15.780;2024-03-06T13:32:51;15.00;;;12.48;;
13345;SDS011;6742;48.036;15.780;2024-03-06T13:35:19;16.60;;;13.57;;
13345;SDS011;6742;48.036;15.780;2024-03-06T13:37:49;20.55;;;13.85;;
13345;SDS011;6742;48.036;15.780;2024-03-06T13:40:17;16.45;;;12.90;;
13345;SDS011;6742;48.036;15.780;2024-03-06T13:42:44;15.02;;;12.10;;
13345;SDS011;6742;48.036;15.780;2024-03-06T13:45:11;13.18;;;11.32;;
13345;SDS011;6742;48.036;15.780;2024-03-06T13:47:39;13.80;;;11.75;;
13345;SDS011;6742;48.036;15.780;2024-03-06T13:50:07;13.77;;;11.40;;
13345;SDS011;6742;48.036;15.780;2024-03-06T13:52:35;14.07;;;11.52;;
13345;SDS011;6742;48.036;15.780;2024-03-06T13:55:02;15.37;;;12.83;;
13345;SDS011;6742;48.036;15.780;2024-03-06T13:57:32;15.80;;;12.20;;
13345;SDS011;6742;48.036;15.780;2024-03-06T13:59:59;14.93;;;12.90;;
13345;SDS011;6742;48.036;15.780;2024-03-06T14:02:28;15.35;;;11.88;;
13345;SDS011;6742;48.036;15.780;2024-03-06T14:04:55;14.90;;;11.17;;
13345;SDS011;6742;48.036;15.780;2024-03-06T14:07:22;17.23;;;13.23;;
13345;SDS011;6742;48.036;15.780;2024-03-06T14:09:49;14.20;;;12.27;;
13345;SDS011;6742;48.036;15.780;2024-03-06T14:12:16;17.00;;;14.02;;
13345;SDS011;6742;48.036;15.780;2024-03-06T14:14:44;14.05;;;12.32;;
13345;SDS011;6742;48.036;15.780;2024-03-06T14:17:11;15.23;;;12.63;;
13345;SDS011;6742;48.036;15.780;2024-03-06T14:19:38;14.15;;;11.65;;
13345;SDS011;6742;48.036;15.780;2024-03-06T14:22:06;14.95;;;12.35;;
13345;SDS011;6742;48.036;15.780;2024-03-06T14:24:33;14.35;;;12.25;;
13345;SDS011;6742;48.036;15.780;2024-03-06T14:27:00;15.45;;;13.07;;
13345;SDS011;6742;48.036;15.780;2024-03-06T14:29:27;17.20;;;14.20;;
13345;SDS011;6742;48.036;15.780;2024-03-06T14:31:56;15.17;;;12.03;;